createdAt,value
2024-05-09T00:02:20.786Z,1.00
2024-05-09T00:04:53.390Z,0.70
2024-05-09T00:07:23.406Z,0.82
2024-05-09T00:09:53.225Z,0.70
2024-05-09T00:12:23.185Z,0.63
2024-05-09T00:14:53.071Z,0.50
2024-05-09T00:17:23.089Z,0.80
2024-05-09T00:19:55.654Z,0.65
2024-05-09T00:22:25.524Z,0.70
2024-05-09T00:24:55.337Z,0.60
2024-05-09T00:27:25.447Z,1.00
2024-05-09T00:29:55.277Z,0.68
2024-05-09T00:32:25.266Z,0.60
2024-05-09T00:34:57.946Z,0.85
2024-05-09T00:37:27.782Z,0.90
2024-05-09T00:39:57.553Z,0.65
2024-05-09T00:42:27.330Z,0.70
2024-05-09T00:44:57.099Z,0.82
2024-05-09T00:47:27.470Z,0.77
2024-05-09T00:50:00.049Z,0.80
2024-05-09T00:52:31.127Z,0.73
2024-05-09T00:55:01.193Z,0.98
2024-05-09T00:57:31.292Z,1.00
2024-05-09T01:00:02.295Z,0.70
2024-05-09T01:02:32.694Z,0.70
2024-05-09T01:05:06.266Z,0.75
2024-05-09T01:07:36.237Z,0.85
2024-05-09T01:10:11.723Z,0.65
2024-05-09T01:12:47.148Z,0.90
2024-05-09T01:15:17.459Z,0.52
2024-05-09T01:17:48.364Z,0.70
2024-05-09T01:20:31.629Z,0.80
2024-05-09T01:23:15.541Z,0.80
2024-05-09T01:25:47.274Z,0.77
2024-05-09T01:28:18.082Z,0.60
2024-05-09T01:30:48.024Z,0.77
2024-05-09T01:33:18.118Z,0.73
2024-05-09T01:35:51.114Z,0.60
2024-05-09T01:38:23.882Z,0.73
2024-05-09T01:40:55.894Z,0.88
2024-05-09T01:43:25.976Z,0.40
2024-05-09T01:45:56.084Z,0.70
2024-05-09T01:48:30.701Z,0.60
2024-05-09T01:51:01.126Z,0.70
2024-05-09T01:53:34.196Z,0.50
2024-05-09T01:56:04.775Z,0.77
2024-05-09T01:58:34.834Z,0.70
2024-05-09T02:01:05.871Z,0.73
2024-05-09T02:03:35.924Z,0.50
2024-05-09T02:06:06.785Z,0.68
2024-05-09T02:08:39.740Z,0.57
2024-05-09T02:11:11.443Z,0.70
2024-05-09T02:13:44.255Z,0.63
2024-05-09T02:16:15.615Z,0.82
2024-05-09T02:18:45.772Z,0.57
2024-05-09T02:21:16.026Z,0.65
2024-05-09T02:23:48.744Z,0.80
2024-05-09T02:26:19.914Z,0.60
2024-05-09T02:28:50.031Z,0.70
2024-05-09T02:31:20.067Z,0.52
2024-05-09T02:33:50.345Z,0.50
2024-05-09T02:36:20.578Z,0.60
2024-05-09T02:38:51.257Z,0.60
2024-05-09T02:41:21.369Z,0.47
2024-05-09T02:43:48.680Z,0.60
2024-05-09T02:46:18.658Z,0.70
2024-05-09T02:48:46.309Z,0.60
2024-05-09T02:51:20.253Z,0.50
2024-05-09T02:56:20.363Z,0.60
2024-05-09T02:58:47.618Z,0.47
2024-05-09T03:01:20.326Z,0.63
2024-05-09T03:03:48.657Z,0.68
2024-05-09T03:06:18.726Z,0.98
2024-05-09T03:08:46.060Z,0.50
2024-05-09T03:11:28.730Z,0.50
2024-05-09T03:13:56.102Z,0.40
2024-05-09T03:16:26.384Z,0.50
2024-05-09T03:18:54.818Z,0.63
2024-05-09T03:21:24.807Z,0.70
2024-05-09T03:23:52.133Z,0.60
2024-05-09T03:26:22.605Z,0.70
2024-05-09T03:28:53.355Z,0.40
2024-05-09T03:31:23.476Z,0.65
2024-05-09T03:33:50.978Z,0.30
2024-05-09T03:36:27.343Z,1.35
2024-05-09T03:38:57.279Z,0.73
2024-05-09T03:41:31.476Z,1.00
2024-05-09T03:44:04.668Z,0.57
2024-05-09T03:46:34.657Z,0.55
2024-05-09T03:49:02.164Z,0.77
2024-05-09T03:51:34.951Z,0.90
2024-05-09T03:54:02.317Z,0.98
2024-05-09T03:56:32.421Z,2.05
2024-05-09T03:59:05.682Z,0.70
2024-05-09T04:01:36.075Z,0.75
2024-05-09T04:04:05.701Z,0.70
2024-05-09T04:06:36.469Z,0.80
2024-05-09T04:09:05.193Z,0.88
2024-05-09T04:11:35.952Z,0.60
2024-05-09T04:14:06.311Z,0.82
2024-05-09T04:16:36.363Z,0.80
2024-05-09T04:19:03.801Z,0.63
2024-05-09T04:21:36.551Z,0.73
2024-05-09T04:24:04.337Z,0.60
2024-05-09T04:26:34.493Z,0.60
2024-05-09T04:29:02.146Z,0.90
2024-05-09T04:31:39.160Z,0.60
2024-05-09T04:34:06.591Z,0.65
2024-05-09T04:36:36.687Z,0.60
2024-05-09T04:39:04.037Z,0.50
2024-05-09T04:41:33.977Z,0.60
2024-05-09T04:44:01.705Z,0.60
2024-05-09T04:46:31.654Z,1.10
2024-05-09T04:49:01.680Z,0.60
2024-05-09T04:51:32.565Z,0.90
2024-05-09T04:53:59.922Z,0.70
2024-05-09T04:56:30.242Z,0.90
2024-05-09T04:58:57.671Z,0.73
2024-05-09T05:01:27.985Z,1.10
2024-05-09T05:03:57.766Z,0.85
2024-05-09T05:06:30.921Z,0.98
2024-05-09T05:08:58.259Z,0.90
2024-05-09T05:11:28.393Z,1.10
2024-05-09T05:13:56.038Z,1.10
2024-05-09T05:16:26.259Z,0.80
2024-05-09T05:18:56.305Z,1.02
2024-05-09T05:21:26.403Z,1.33
2024-05-09T05:23:56.726Z,0.80
2024-05-09T05:26:27.743Z,0.80
2024-05-09T05:28:55.219Z,0.93
2024-05-09T05:31:29.456Z,0.80
2024-05-09T05:33:57.368Z,0.80
2024-05-09T05:36:27.564Z,0.88
2024-05-09T05:38:57.592Z,0.75
2024-05-09T05:41:28.457Z,0.65
2024-05-09T05:43:56.019Z,0.52
2024-05-09T05:46:26.210Z,0.75
2024-05-09T05:48:53.955Z,0.55
2024-05-09T05:51:24.506Z,0.77
2024-05-09T05:53:51.777Z,0.70
2024-05-09T05:56:28.738Z,0.68
2024-05-09T05:58:56.367Z,0.68
2024-05-09T06:01:26.769Z,0.60
2024-05-09T06:03:54.298Z,0.43
2024-05-09T06:06:24.380Z,0.40
2024-05-09T06:08:52.708Z,0.50
2024-05-09T06:11:25.419Z,0.60
2024-05-09T06:13:52.764Z,0.55
2024-05-09T06:16:23.199Z,0.43
2024-05-09T06:18:51.115Z,0.60
2024-05-09T06:21:23.919Z,0.88
2024-05-09T06:23:51.376Z,0.40
2024-05-09T06:26:24.518Z,0.40
2024-05-09T06:28:54.534Z,0.70
2024-05-09T06:31:24.726Z,0.30
2024-05-09T06:33:52.379Z,0.80
2024-05-09T06:36:22.667Z,0.47
2024-05-09T06:38:50.327Z,0.50
2024-05-09T06:41:20.432Z,0.47
2024-05-09T06:43:47.825Z,0.65
2024-05-09T06:46:21.450Z,0.50
2024-05-09T06:48:49.467Z,0.55
2024-05-09T06:51:28.396Z,0.55
2024-05-09T06:53:55.798Z,0.38
2024-05-09T06:56:25.915Z,0.17
2024-05-09T06:58:54.544Z,0.40
2024-05-09T07:01:27.566Z,0.70
2024-05-09T07:03:57.926Z,0.60
2024-05-09T07:06:27.528Z,0.63
2024-05-09T07:08:57.390Z,0.50
2024-05-09T07:11:31.599Z,0.50
2024-05-09T07:14:00.600Z,0.50
2024-05-09T07:16:33.784Z,1.15
2024-05-09T07:19:01.731Z,0.80
2024-05-09T07:21:32.425Z,0.75
2024-05-09T07:24:03.223Z,0.68
2024-05-09T07:26:34.088Z,0.47
2024-05-09T07:29:01.794Z,0.70
2024-05-09T07:31:34.758Z,0.60
2024-05-09T07:34:02.261Z,0.90
2024-05-09T07:36:32.868Z,0.73
2024-05-09T07:39:03.187Z,0.88
2024-05-09T07:41:33.265Z,0.63
2024-05-09T07:44:00.979Z,0.98
2024-05-09T07:47:37.146Z,0.98
2024-05-09T07:53:21.792Z,0.70
2024-05-09T07:54:47.888Z,0.80
2024-05-09T07:57:18.131Z,0.93
2024-05-09T07:59:47.707Z,0.70
2024-05-09T08:02:18.222Z,0.88
2024-05-09T08:04:51.585Z,0.90
2024-05-09T08:07:24.818Z,0.60
2024-05-09T08:09:53.011Z,0.80
2024-05-09T08:12:22.991Z,0.95
2024-05-09T08:14:53.160Z,1.23
2024-05-09T08:17:23.605Z,0.75
2024-05-09T08:19:53.688Z,1.00
2024-05-09T08:22:23.688Z,0.60
2024-05-09T08:24:54.690Z,1.00
2024-05-09T08:27:28.494Z,0.80
2024-05-09T08:29:56.744Z,1.00
2024-05-09T08:32:28.391Z,0.70
2024-05-09T08:35:05.433Z,0.63
2024-05-09T08:37:37.793Z,0.90
2024-05-09T08:40:23.467Z,0.80
2024-05-09T08:42:57.530Z,0.88
2024-05-09T08:45:28.622Z,0.70
2024-05-09T08:47:59.837Z,1.25
2024-05-09T08:50:38.793Z,0.90
2024-05-09T08:55:43.478Z,0.90
2024-05-09T08:58:16.176Z,1.00
2024-05-09T09:00:49.499Z,0.80
2024-05-09T09:03:19.705Z,0.60
2024-05-09T09:06:02.438Z,1.05
2024-05-09T09:08:29.826Z,0.93
2024-05-09T09:11:01.860Z,0.68
2024-05-09T09:13:29.486Z,1.13
2024-05-09T09:16:01.279Z,1.00
2024-05-09T09:18:30.494Z,1.13
2024-05-09T09:21:07.461Z,0.85
2024-05-09T09:26:05.496Z,1.05
2024-05-09T09:28:36.835Z,1.00
2024-05-09T09:31:07.330Z,1.25
2024-05-09T09:33:36.302Z,1.73
2024-05-09T09:36:15.702Z,0.93
2024-05-09T09:38:43.954Z,1.52
2024-05-09T09:41:16.430Z,0.73
2024-05-09T09:43:45.812Z,0.90
2024-05-09T09:46:17.771Z,1.00
2024-05-09T09:48:46.798Z,0.85
2024-05-09T09:51:19.760Z,0.80
2024-05-09T09:53:49.230Z,2.38
2024-05-09T09:56:21.547Z,1.50
2024-05-09T09:58:50.110Z,1.38
2024-05-09T10:01:20.216Z,1.00
2024-05-09T10:03:47.975Z,1.10
2024-05-09T10:06:21.900Z,0.90
2024-05-09T10:08:52.510Z,0.88
2024-05-09T10:11:24.531Z,0.80
2024-05-09T10:13:55.099Z,1.00
2024-05-09T10:16:22.579Z,1.13
2024-05-09T10:18:52.836Z,1.00
2024-05-09T10:21:23.710Z,0.80
2024-05-09T10:24:00.859Z,1.52
2024-05-09T10:26:33.064Z,0.70
2024-05-09T10:29:03.572Z,1.00
2024-05-09T10:31:31.097Z,1.50
2024-05-09T10:34:03.594Z,0.88
2024-05-09T10:36:33.782Z,0.68
2024-05-09T10:39:03.696Z,0.80
2024-05-09T10:41:30.862Z,0.90
2024-05-09T10:44:00.710Z,1.10
2024-05-09T10:46:29.027Z,0.80
2024-05-09T10:49:05.324Z,0.77
2024-05-09T10:51:37.507Z,0.70
2024-05-09T10:54:07.897Z,0.98
2024-05-09T10:56:35.178Z,1.00
2024-05-09T10:59:06.349Z,1.02
2024-05-09T11:01:33.677Z,0.82
2024-05-09T11:04:04.319Z,0.80
2024-05-09T11:06:31.952Z,0.82
2024-05-09T11:09:06.492Z,0.60
2024-05-09T11:11:34.194Z,1.00
2024-05-09T11:14:17.747Z,1.00
2024-05-09T11:19:18.833Z,0.90
2024-05-09T11:21:51.523Z,0.98
2024-05-09T11:24:27.997Z,0.77
2024-05-09T11:26:57.420Z,0.90
2024-05-09T11:29:38.942Z,1.00
2024-05-09T11:32:08.184Z,1.20
2024-05-09T11:34:43.123Z,1.00
2024-05-09T11:37:11.087Z,1.08
2024-05-09T11:39:44.856Z,0.93
2024-05-09T11:42:12.306Z,1.20
2024-05-09T11:44:42.258Z,1.70
2024-05-09T11:47:09.706Z,1.00
2024-05-09T11:50:26.740Z,1.05
2024-05-09T11:52:57.974Z,1.23
2024-05-09T11:55:47.725Z,1.30
2024-05-09T11:58:23.159Z,1.05
2024-05-09T12:00:52.451Z,1.00
2024-05-09T12:03:26.851Z,0.95
2024-05-09T12:05:54.366Z,0.90
2024-05-09T12:08:24.319Z,1.00
2024-05-09T12:10:54.486Z,1.20
2024-05-09T12:13:24.861Z,0.80
2024-05-09T12:15:52.347Z,1.10
2024-05-09T12:18:22.187Z,1.55
2024-05-09T12:20:49.415Z,1.10
2024-05-09T12:23:19.233Z,1.10
2024-05-09T12:25:46.409Z,1.00
2024-05-09T12:28:19.094Z,1.17
2024-05-09T12:30:46.413Z,0.93
2024-05-09T12:33:16.653Z,1.02
2024-05-09T12:35:46.518Z,0.95
2024-05-09T12:38:18.063Z,1.10
2024-05-09T12:40:45.341Z,1.02
2024-05-09T12:43:15.220Z,1.00
2024-05-09T12:45:45.147Z,1.50
2024-05-09T12:48:15.137Z,1.10
2024-05-09T12:50:42.538Z,1.00
2024-05-09T12:53:12.336Z,1.30
2024-05-09T12:55:48.133Z,1.00
2024-05-09T12:58:24.589Z,0.95
2024-05-09T13:00:54.638Z,1.20
2024-05-09T13:03:24.647Z,1.00
2024-05-09T13:05:52.369Z,1.27
2024-05-09T13:08:22.901Z,0.90
2024-05-09T13:10:50.468Z,1.13
2024-05-09T13:13:20.388Z,1.35
2024-05-09T13:15:47.724Z,0.98
2024-05-09T13:18:20.347Z,0.93
2024-05-09T13:20:47.582Z,0.70
2024-05-09T13:23:17.382Z,1.00
2024-05-09T13:25:44.609Z,0.80
2024-05-09T13:28:14.573Z,1.40
2024-05-09T13:30:42.465Z,1.48
2024-05-09T13:33:13.678Z,1.13
2024-05-09T13:35:48.584Z,1.42
2024-05-09T13:38:22.022Z,1.50
2024-05-09T13:40:50.615Z,1.40
2024-05-09T13:43:22.005Z,1.58
2024-05-09T13:45:49.913Z,1.17
2024-05-09T13:48:19.992Z,1.15
2024-05-09T13:50:50.234Z,1.65
2024-05-09T13:53:20.026Z,1.42
2024-05-09T13:55:47.475Z,1.10
2024-05-09T13:58:17.862Z,1.30
2024-05-09T14:00:48.840Z,1.55
2024-05-09T14:03:20.782Z,1.33
2024-05-09T14:05:52.163Z,1.30
2024-05-09T14:08:22.830Z,1.40
2024-05-09T14:10:51.350Z,1.20
2024-05-09T14:13:21.368Z,1.10
2024-05-09T14:15:49.372Z,1.42
2024-05-09T14:18:19.708Z,1.38
2024-05-09T14:20:46.964Z,1.65
2024-05-09T14:23:20.702Z,1.30
2024-05-09T14:25:51.763Z,1.42
2024-05-09T14:28:22.715Z,1.20
2024-05-09T14:30:51.076Z,1.42
2024-05-09T14:33:26.689Z,1.20
2024-05-09T14:35:54.478Z,1.08
2024-05-09T14:38:27.579Z,1.05
2024-05-09T14:40:54.921Z,1.55
2024-05-09T14:43:25.796Z,1.05
2024-05-09T14:45:53.713Z,1.17
2024-05-09T14:48:23.666Z,1.00
2024-05-09T14:50:50.965Z,1.60
2024-05-09T14:53:20.740Z,0.90
2024-05-09T14:55:50.723Z,1.23
2024-05-09T14:58:20.830Z,1.38
2024-05-09T15:00:50.918Z,1.20
2024-05-09T15:03:22.375Z,1.65
2024-05-09T15:05:51.101Z,1.50
2024-05-09T15:08:22.264Z,1.27
2024-05-09T15:10:52.707Z,1.17
2024-05-09T15:13:23.956Z,1.20
2024-05-09T15:15:51.584Z,1.25
2024-05-09T15:18:21.693Z,1.15
2024-05-09T15:20:49.158Z,1.27
2024-05-09T15:23:19.146Z,1.30
2024-05-09T15:25:46.535Z,1.05
2024-05-09T15:28:19.030Z,2.30
2024-05-09T15:30:47.033Z,1.88
2024-05-09T15:33:17.572Z,0.95
2024-05-09T15:35:46.727Z,1.10
2024-05-09T15:38:18.523Z,0.98
2024-05-09T15:40:46.114Z,1.20
2024-05-09T15:43:18.768Z,1.17
2024-05-09T15:45:46.072Z,1.33
2024-05-09T15:48:16.231Z,1.05
2024-05-09T15:50:43.678Z,1.20
2024-05-09T15:53:14.431Z,1.20
2024-05-09T15:55:42.175Z,0.85
2024-05-09T15:58:12.695Z,1.10
2024-05-09T16:00:44.814Z,1.10
2024-05-09T16:03:16.160Z,0.90
2024-05-09T16:05:44.747Z,1.25
2024-05-09T16:08:15.599Z,0.90
2024-05-09T16:10:46.105Z,1.20
2024-05-09T16:13:17.892Z,1.20
2024-05-09T16:15:48.240Z,1.60
2024-05-09T16:18:19.742Z,1.05
2024-05-09T16:20:49.479Z,1.10
2024-05-09T16:23:20.398Z,0.85
2024-05-09T16:25:48.473Z,0.93
2024-05-09T16:28:19.391Z,1.10
2024-05-09T16:30:50.286Z,1.38
2024-05-09T16:33:23.874Z,1.42
2024-05-09T16:35:51.327Z,1.67
2024-05-09T16:38:21.559Z,1.40
2024-05-09T16:40:48.943Z,1.33
2024-05-09T16:43:19.123Z,1.30
2024-05-09T16:45:46.537Z,1.20
2024-05-09T16:48:19.143Z,1.30
2024-05-09T16:50:46.368Z,1.63
2024-05-09T16:53:16.400Z,1.42
2024-05-09T16:55:43.625Z,1.08
2024-05-09T16:58:14.388Z,1.00
2024-05-09T17:00:43.632Z,1.00
2024-05-09T17:03:16.524Z,1.10
2024-05-09T17:05:47.664Z,0.80
2024-05-09T17:08:20.003Z,0.90
2024-05-09T17:10:49.214Z,0.90
2024-05-09T17:13:20.228Z,1.35
2024-05-09T17:15:50.706Z,1.05
2024-05-09T17:18:21.055Z,1.20
2024-05-09T17:20:54.683Z,1.00
2024-05-09T17:23:22.105Z,1.00
2024-05-09T17:25:51.902Z,1.08
2024-05-09T17:28:19.520Z,0.98
2024-05-09T17:30:49.667Z,0.90
2024-05-09T17:33:17.046Z,1.10
2024-05-09T17:35:50.751Z,1.30
2024-05-09T17:38:23.371Z,0.95
2024-05-09T17:40:54.795Z,1.10
2024-05-09T17:43:23.177Z,1.30
2024-05-09T17:45:53.109Z,1.10
2024-05-09T17:48:20.582Z,1.10
2024-05-09T17:50:51.554Z,1.30
2024-05-09T17:53:21.600Z,1.40
2024-05-09T17:55:53.978Z,0.90
2024-05-09T17:58:21.500Z,1.23
2024-05-09T18:00:51.528Z,1.35
2024-05-09T18:03:18.777Z,1.17
2024-05-09T18:05:48.729Z,1.50
2024-05-09T18:08:15.947Z,1.30
2024-05-09T18:10:48.379Z,1.25
2024-05-09T18:13:15.682Z,1.50
2024-05-09T18:15:45.702Z,0.95
2024-05-09T18:18:14.082Z,1.40
2024-05-09T18:20:45.936Z,1.73
2024-05-09T18:23:16.040Z,1.60
2024-05-09T18:25:54.539Z,1.90
2024-05-09T18:28:22.354Z,1.70
2024-05-09T18:30:52.447Z,1.23
2024-05-09T18:33:20.618Z,1.30
2024-05-09T18:35:50.674Z,1.10
2024-05-09T18:38:18.602Z,1.33
2024-05-09T18:40:51.092Z,1.83
2024-05-09T18:43:20.227Z,1.27
2024-05-09T18:45:53.763Z,1.67
2024-05-09T18:48:22.117Z,1.85
2024-05-09T18:50:52.300Z,1.70
2024-05-09T18:53:19.582Z,1.60
2024-05-09T18:55:52.071Z,1.60
2024-05-09T18:58:20.563Z,1.70
2024-05-09T19:00:53.020Z,1.85
2024-05-09T19:03:22.097Z,1.45
2024-05-09T19:05:52.252Z,1.60
2024-05-09T19:08:19.526Z,1.33
2024-05-09T19:10:52.659Z,1.48
2024-05-09T19:13:19.998Z,1.08
2024-05-09T19:15:49.806Z,1.30
2024-05-09T19:18:17.449Z,1.17
2024-05-09T19:20:47.412Z,1.33
2024-05-09T19:23:14.657Z,1.30
2024-05-09T19:25:44.451Z,1.23
2024-05-09T19:28:14.385Z,1.27
2024-05-09T19:30:44.422Z,1.23
2024-05-09T19:33:13.235Z,1.35
2024-05-09T19:35:44.367Z,1.63
2024-05-09T19:38:12.249Z,1.17
2024-05-09T19:40:42.126Z,1.30
2024-05-09T19:43:09.996Z,1.20
2024-05-09T19:45:43.706Z,1.25
2024-05-09T19:48:11.230Z,1.30
2024-05-09T19:50:44.058Z,0.95
2024-05-09T19:55:43.027Z,1.17
2024-05-09T19:58:11.390Z,1.00
2024-05-09T20:00:45.043Z,0.98
2024-05-09T20:05:45.846Z,1.10
2024-05-09T20:08:13.770Z,1.20
2024-05-09T20:10:43.767Z,0.98
2024-05-09T20:13:11.175Z,1.30
2024-05-09T20:15:41.155Z,1.80
2024-05-09T20:18:11.337Z,1.20
2024-05-09T20:20:43.629Z,1.27
2024-05-09T20:23:12.925Z,1.52
2024-05-09T20:25:43.001Z,1.50
2024-05-09T20:28:10.771Z,0.98
2024-05-09T20:30:41.111Z,1.20
2024-05-09T20:33:12.690Z,1.30
2024-05-09T20:35:42.673Z,1.30
2024-05-09T20:38:10.052Z,1.65
2024-05-09T20:40:41.189Z,1.40
2024-05-09T20:43:09.662Z,1.48
2024-05-09T20:45:40.681Z,1.45
2024-05-09T20:48:11.919Z,1.67
2024-05-09T20:50:42.777Z,1.23
2024-05-09T20:53:12.708Z,1.27
2024-05-09T20:55:45.922Z,1.42
2024-05-09T20:58:14.141Z,1.33
2024-05-09T21:00:45.979Z,1.55
2024-05-09T21:03:17.823Z,1.40
2024-05-09T21:05:49.402Z,1.73
2024-05-09T21:08:17.201Z,1.50
2024-05-09T21:10:47.783Z,1.58
2024-05-09T21:13:18.988Z,1.58
2024-05-09T21:15:46.692Z,1.55
2024-05-09T21:18:19.357Z,1.33
2024-05-09T21:20:46.531Z,1.80
2024-05-09T21:23:16.608Z,1.55
2024-05-09T21:25:44.042Z,1.50
2024-05-09T21:28:14.915Z,1.77
2024-05-09T21:30:43.410Z,1.80
2024-05-09T21:33:15.146Z,1.70
2024-05-09T21:35:45.898Z,1.88
2024-05-09T21:38:18.440Z,2.25
2024-05-09T21:40:47.587Z,2.42
2024-05-09T21:43:17.782Z,2.85
2024-05-09T21:45:45.277Z,3.28
2024-05-09T21:48:16.006Z,2.78
2024-05-09T21:50:46.006Z,2.90
2024-05-09T21:53:15.925Z,2.40
2024-05-09T21:55:43.404Z,1.98
2024-05-09T21:58:14.480Z,2.17
2024-05-09T22:00:45.505Z,2.28
2024-05-09T22:03:15.665Z,1.90
2024-05-09T22:05:45.705Z,1.73
2024-05-09T22:08:15.868Z,2.30
2024-05-09T22:10:43.173Z,1.90
2024-05-09T22:13:13.509Z,1.80
2024-05-09T22:15:41.108Z,1.52
2024-05-09T22:18:12.167Z,2.15
2024-05-09T22:20:45.167Z,1.77
2024-05-09T22:23:18.730Z,1.85
2024-05-09T22:25:45.927Z,1.70
2024-05-09T22:28:17.497Z,1.70
2024-05-09T22:30:46.512Z,1.98
2024-05-09T22:33:17.638Z,1.50
2024-05-09T22:35:45.327Z,1.50
2024-05-09T22:38:15.249Z,1.50
2024-05-09T22:40:48.567Z,1.40
2024-05-09T22:43:24.843Z,1.67
2024-05-09T22:45:53.205Z,1.60
2024-05-09T22:48:23.818Z,1.77
2024-05-09T22:50:51.657Z,1.42
2024-05-09T22:53:21.448Z,1.40
2024-05-09T22:55:51.458Z,1.50
2024-05-09T22:58:22.676Z,1.27
2024-05-09T23:00:50.248Z,1.70
2024-05-09T23:03:21.810Z,1.70
2024-05-09T23:05:49.711Z,1.40
2024-05-09T23:08:19.564Z,1.75
2024-05-09T23:10:46.895Z,1.58
2024-05-09T23:13:19.613Z,1.77
2024-05-09T23:15:47.045Z,1.42
2024-05-09T23:18:16.891Z,1.63
2024-05-09T23:20:44.073Z,1.55
2024-05-09T23:23:13.898Z,1.70
2024-05-09T23:25:42.118Z,1.70
2024-05-09T23:28:12.585Z,1.65
2024-05-09T23:30:42.786Z,1.52
2024-05-09T23:33:14.590Z,1.42
2024-05-09T23:35:43.505Z,1.80
2024-05-09T23:38:13.702Z,1.77
2024-05-09T23:40:42.329Z,1.65
2024-05-09T23:43:13.727Z,1.40
2024-05-09T23:45:46.482Z,1.33
2024-05-09T23:48:13.929Z,1.38
2024-05-09T23:50:43.995Z,1.73
2024-05-09T23:53:11.481Z,1.33
2024-05-09T23:55:41.413Z,1.55
2024-05-09T23:58:08.796Z,1.60
